Time;durP1;ratioP1;P1;durP2;ratioP2;P2;SDS_P1;SDS_P2;PMS_P1;PMS_P2;Temp;Humidity;BMP_temperature;BMP_pressure;BME280_temperature;BME280_humidity;BME280_pressure;Samples;Min_cycle;Max_cycle;Signal;HPM_P1;HPM_P2
2022/01/10 00:00:09;;;;;;;20.85;5.68;;;3.40;99.90;;;;;;4997347;28;20034;-83
2022/01/10 00:02:35;;;;;;;23.35;5.20;;;3.40;99.90;;;;;;4996911;28;20045;-83
2022/01/10 00:05:00;;;;;;;22.40;5.55;;;3.80;99.90;;;;;;4997476;28;20045;-83
2022/01/10 00:07:26;;;;;;;22.88;5.72;;;4.90;99.90;;;;;;4978143;28;20041;-83
2022/01/10 00:09:52;;;;;;;23.45;5.55;;;3.40;99.90;;;;;;4981173;28;20038;-82
2022/01/10 00:12:17;;;;;;;23.70;6.07;;;3.40;99.90;;;;;;4962465;28;20514;-83
2022/01/10 00:14:43;;;;;;;23.52;5.47;;;4.40;99.90;;;;;;4966583;28;20037;-83
2022/01/10 00:17:09;;;;;;;20.15;5.32;;;3.90;99.90;;;;;;4977443;28;20480;-83
2022/01/10 00:19:35;;;;;;;21.77;5.10;;;3.30;99.90;;;;;;4993130;28;20065;-84
2022/01/10 00:22:00;;;;;;;19.52;4.72;;;4.60;99.90;;;;;;4985177;28;20037;-83
2022/01/10 00:24:26;;;;;;;23.88;5.15;;;4.70;99.90;;;;;;4976631;28;20034;-83
2022/01/10 00:26:52;;;;;;;25.23;6.05;;;3.20;99.90;;;;;;5001284;28;20041;-83
2022/01/10 00:29:18;;;;;;;22.88;5.35;;;3.20;99.90;;;;;;4976294;28;20042;-83
2022/01/10 00:31:43;;;;;;;14.30;4.82;;;3.20;99.90;;;;;;4970381;28;20081;-83
2022/01/10 00:34:10;;;;;;;20.13;4.88;;;3.10;99.90;;;;;;5001234;28;20069;-83
2022/01/10 00:36:36;;;;;;;22.83;5.10;;;4.40;99.90;;;;;;4954039;28;20034;-83
2022/01/10 00:39:04;;;;;;;20.73;4.40;;;3.00;99.90;;;;;;4985252;28;20038;-83
2022/01/10 00:41:29;;;;;;;23.20;4.78;;;4.00;99.90;;;;;;4984668;28;20421;-83
2022/01/10 00:43:55;;;;;;;15.95;4.55;;;3.90;99.90;;;;;;4966910;28;20053;-82
2022/01/10 00:46:22;;;;;;;20.30;4.18;;;2.90;99.90;;;;;;4969736;28;20045;-82
2022/01/10 00:48:48;;;;;;;23.70;4.57;;;4.00;99.90;;;;;;4978035;28;20041;-83
2022/01/10 00:51:14;;;;;;;25.70;4.95;;;3.90;99.90;;;;;;5004703;28;20177;-83
2022/01/10 00:53:39;;;;;;;15.63;5.00;;;2.90;99.90;;;;;;4960891;28;20038;-83
2022/01/10 00:56:08;;;;;;;23.25;5.13;;;3.30;99.90;;;;;;4993269;28;20479;-83
2022/01/10 00:58:36;;;;;;;21.33;4.65;;;2.80;99.90;;;;;;4992658;28;20033;-83
2022/01/10 01:01:05;;;;;;;23.10;5.00;;;2.80;99.90;;;;;;4991065;28;20048;-83
2022/01/10 01:03:31;;;;;;;21.27;4.53;;;2.80;99.90;;;;;;4966252;28;20048;-83
2022/01/10 01:05:57;;;;;;;17.98;4.03;;;4.00;99.90;;;;;;4986297;28;20100;-83
2022/01/10 01:08:26;;;;;;;19.33;4.80;;;2.70;99.90;;;;;;5007210;28;20042;-83
2022/01/10 01:11:14;;;;;;;19.38;4.28;;;3.30;99.90;;;;;;4977584;28;20037;-83
2022/01/10 01:13:52;;;;;;;19.77;4.43;;;3.70;99.90;;;;;;4993646;28;20034;-83
2022/01/10 01:16:31;;;;;;;24.15;5.57;;;3.30;99.90;;;;;;5014871;28;20059;-82
2022/01/10 01:19:15;;;;;;;24.95;4.93;;;4.60;99.90;;;;;;4983093;28;20045;-82
2022/01/10 01:24:25;;;;;;;19.55;4.20;;;2.60;99.90;;;;;;5009319;28;20475;-83
2022/01/10 01:26:52;;;;;;;19.20;4.38;;;2.60;99.90;;;;;;5008998;28;20076;-83
2022/01/10 01:29:22;;;;;;;15.95;4.55;;;2.50;99.90;;;;;;4991253;28;20045;-84
2022/01/10 01:31:48;;;;;;;21.02;5.00;;;2.50;99.90;;;;;;4992428;28;20069;-82
2022/01/10 01:34:15;;;;;;;21.15;5.30;;;2.50;99.90;;;;;;4985868;28;20084;-83
2022/01/10 01:36:45;;;;;;;19.58;5.18;;;3.90;99.90;;;;;;5007579;28;20127;-83
2022/01/10 01:39:19;;;;;;;20.23;5.22;;;3.30;99.90;;;;;;4977340;28;20116;-83
2022/01/10 01:41:45;;;;;;;21.88;5.18;;;4.00;99.90;;;;;;4986169;28;20120;-82
2022/01/10 01:44:11;;;;;;;21.05;4.85;;;2.40;99.90;;;;;;4975000;28;20050;-83
2022/01/10 01:46:39;;;;;;;17.17;5.10;;;1.50;99.90;;;;;;4961187;28;20120;-83
2022/01/10 01:49:06;;;;;;;18.80;4.90;;;3.50;99.90;;;;;;4965607;28;20037;-83
2022/01/10 01:51:32;;;;;;;19.35;5.38;;;;;;;;;;4979124;28;20082;-83
2022/01/10 01:53:59;;;;;;;17.52;5.15;;;3.60;99.90;;;;;;5028681;28;20034;-82
2022/01/10 01:56:25;;;;;;;17.52;4.45;;;2.30;99.90;;;;;;4990770;28;20084;-83
2022/01/10 01:58:53;;;;;;;17.63;5.75;;;3.80;99.90;;;;;;4978077;28;20029;-82
2022/01/10 02:01:19;;;;;;;20.00;4.93;;;4.20;99.90;;;;;;4994549;28;20505;-82
2022/01/10 02:03:46;;;;;;;21.75;5.60;;;2.30;99.90;;;;;;4999808;28;20125;-82
2022/01/10 02:06:13;;;;;;;22.05;5.55;;;2.30;99.90;;;;;;4994849;28;20037;-82
2022/01/10 02:08:40;;;;;;;17.95;5.47;;;2.30;99.90;;;;;;5020912;28;20052;-83
2022/01/10 02:11:08;;;;;;;20.52;5.75;;;2.30;99.90;;;;;;4995122;28;20052;-83
2022/01/10 02:13:34;;;;;;;17.73;5.13;;;2.30;99.90;;;;;;4993335;28;20418;-82
2022/01/10 02:16:05;;;;;;;27.90;6.00;;;4.20;99.90;;;;;;4995901;28;20033;-83
2022/01/10 02:18:31;;;;;;;24.40;5.93;;;3.80;99.90;;;;;;4974292;28;20110;-82
2022/01/10 02:21:00;;;;;;;19.65;5.90;;;3.30;99.90;;;;;;5010605;28;20127;-82
2022/01/10 02:23:26;;;;;;;21.90;5.60;;;2.20;99.90;;;;;;5007653;28;20120;-82
2022/01/10 02:25:53;;;;;;;20.92;5.35;;;2.90;99.90;;;;;;5028357;28;20044;-82
2022/01/10 02:28:18;;;;;;;17.55;5.65;;;2.10;99.90;;;;;;5014908;28;20528;-82
2022/01/10 02:30:44;;;;;;;22.83;5.70;;;2.10;99.90;;;;;;4975559;28;20068;-82
2022/01/10 02:33:11;;;;;;;20.95;6.30;;;2.20;99.90;;;;;;4995932;28;20080;-82
2022/01/10 02:35:55;;;;;;;25.02;6.80;;;3.70;99.90;;;;;;5010979;28;20149;-83
2022/01/10 02:38:21;;;;;;;21.30;5.85;;;2.10;99.90;;;;;;5011456;28;20033;-82
2022/01/10 02:40:48;;;;;;;20.85;6.07;;;2.10;99.90;;;;;;4961654;28;20037;-82
2022/01/10 02:43:14;;;;;;;23.08;6.05;;;2.10;99.90;;;;;;4967485;28;20045;-82
2022/01/10 02:45:40;;;;;;;18.15;5.32;;;2.10;99.90;;;;;;4983423;28;20043;-83
2022/01/10 02:48:06;;;;;;;19.38;5.65;;;2.10;99.90;;;;;;4967667;28;20387;-82
2022/01/10 02:50:31;;;;;;;18.45;5.80;;;2.00;99.90;;;;;;4975598;28;20041;-82
2022/01/10 02:52:57;;;;;;;17.17;5.60;;;3.60;99.90;;;;;;4992291;28;20562;-82
2022/01/10 02:55:23;;;;;;;18.08;5.07;;;2.00;99.90;;;;;;5025824;28;20048;-82
2022/01/10 02:57:48;;;;;;;18.27;5.57;;;1.90;99.90;;;;;;4994316;28;20180;-82
2022/01/10 03:00:21;;;;;;;27.83;5.72;;;2.00;99.90;;;;;;4995443;28;20041;-82
2022/01/10 03:02:51;;;;;;;21.98;5.38;;;2.00;99.90;;;;;;4990373;28;20406;-82
2022/01/10 03:05:18;;;;;;;22.65;6.00;;;3.70;99.90;;;;;;4991538;28;20049;-82
2022/01/10 03:07:45;;;;;;;21.63;5.78;;;2.00;99.90;;;;;;4980189;28;20048;-82
2022/01/10 03:10:11;;;;;;;21.00;5.63;;;2.00;99.90;;;;;;5010116;28;20030;-82
2022/01/10 03:12:37;;;;;;;20.58;5.75;;;1.90;99.90;;;;;;4991922;28;20041;-82
2022/01/10 03:15:07;;;;;;;22.80;6.00;;;2.40;99.90;;;;;;4981960;28;20409;-82
2022/01/10 03:17:33;;;;;;;20.42;5.88;;;2.00;99.90;;;;;;4993288;28;20152;-82
2022/01/10 03:19:59;;;;;;;15.75;5.60;;;1.90;99.90;;;;;;4988480;28;20139;-82
2022/01/10 03:22:26;;;;;;;17.83;5.45;;;1.90;99.90;;;;;;4977474;28;20120;-82
2022/01/10 03:24:53;;;;;;;19.08;5.55;;;1.90;99.90;;;;;;4971277;28;20497;-82
2022/01/10 03:27:19;;;;;;;20.33;5.72;;;1.90;99.90;;;;;;4993552;28;20406;-82
2022/01/10 03:29:45;;;;;;;27.77;6.47;;;1.90;99.90;;;;;;4997993;28;20033;-82
2022/01/10 03:32:11;;;;;;;17.23;5.72;;;3.20;99.90;;;;;;5011877;28;20567;-82
2022/01/10 03:34:38;;;;;;;21.42;5.78;;;1.90;99.90;;;;;;4992520;28;20037;-82
2022/01/10 03:37:05;;;;;;;21.88;6.28;;;2.20;99.90;;;;;;4987182;28;20033;-82
2022/01/10 03:39:31;;;;;;;28.48;6.65;;;3.40;99.90;;;;;;4993311;28;20402;-82
2022/01/10 03:41:57;;;;;;;23.80;5.45;;;3.20;99.90;;;;;;4996182;28;20042;-82
2022/01/10 03:44:23;;;;;;;25.10;7.43;;;1.80;99.90;;;;;;4978454;28;20116;-82
2022/01/10 03:46:49;;;;;;;21.02;6.10;;;1.80;99.90;;;;;;4993066;28;20168;-81
2022/01/10 03:49:15;;;;;;;20.65;6.35;;;2.40;99.90;;;;;;5010837;28;20080;-82
2022/01/10 03:51:41;;;;;;;19.95;6.47;;;2.40;99.90;;;;;;4974626;28;20064;-82
2022/01/10 03:54:07;;;;;;;18.73;5.63;;;3.20;99.90;;;;;;4993554;28;20426;-82
2022/01/10 03:56:33;;;;;;;22.83;6.32;;;1.80;99.90;;;;;;4972247;28;20041;-82
2022/01/10 03:58:59;;;;;;;21.10;6.78;;;3.90;99.90;;;;;;4990360;28;20061;-82
2022/01/10 04:01:25;;;;;;;19.95;6.38;;;3.50;99.90;;;;;;4993479;28;20076;-82
2022/01/10 04:03:52;;;;;;;22.10;6.72;;;1.60;99.90;;;;;;5006152;28;20056;-81
2022/01/10 04:06:18;;;;;;;24.50;6.95;;;1.80;99.90;;;;;;5005531;28;20113;-81
2022/01/10 04:08:43;;;;;;;18.00;6.20;;;1.70;99.90;;;;;;4982866;28;20116;-82
2022/01/10 04:11:09;;;;;;;22.38;7.05;;;1.50;99.90;;;;;;4986727;28;20043;-82
2022/01/10 04:13:35;;;;;;;21.52;6.78;;;1.70;99.90;;;;;;4975188;28;20568;-82
2022/01/10 04:16:01;;;;;;;26.83;7.30;;;3.20;99.90;;;;;;4979878;28;20530;-82
2022/01/10 04:18:27;;;;;;;19.48;7.25;;;1.70;99.90;;;;;;4991346;28;20122;-82
2022/01/10 04:20:53;;;;;;;20.45;6.97;;;1.70;99.90;;;;;;4995321;28;20041;-82
2022/01/10 04:23:19;;;;;;;25.80;7.47;;;1.70;99.90;;;;;;5004928;28;20046;-82
2022/01/10 04:25:45;;;;;;;22.48;7.35;;;1.70;99.90;;;;;;5012676;28;20117;-82
2022/01/10 04:28:11;;;;;;;25.95;7.88;;;1.70;99.90;;;;;;4989823;28;20037;-82
2022/01/10 04:30:37;;;;;;;24.15;7.35;;;1.60;99.90;;;;;;4979284;28;20467;-82
2022/01/10 04:33:03;;;;;;;27.35;7.82;;;1.70;99.90;;;;;;4976303;28;20049;-81
2022/01/10 04:35:30;;;;;;;19.48;7.07;;;1.60;99.90;;;;;;4993630;28;20043;-82
2022/01/10 04:37:57;;;;;;;24.55;8.07;;;3.00;99.90;;;;;;4996913;28;20045;-81
2022/01/10 04:40:24;;;;;;;24.77;7.72;;;1.50;99.90;;;;;;4978463;28;20045;-82
2022/01/10 04:42:50;;;;;;;19.83;7.25;;;1.50;99.90;;;;;;5014208;28;20402;-81
2022/01/10 04:45:16;;;;;;;23.02;7.93;;;1.50;99.90;;;;;;4994290;28;20053;-81
2022/01/10 04:47:41;;;;;;;25.05;8.15;;;1.50;99.90;;;;;;4996817;28;20044;-81
2022/01/10 04:52:46;;;;;;;19.83;8.00;;;1.50;99.90;;;;;;5011965;28;20057;-82
2022/01/10 04:55:13;;;;;;;24.52;8.55;;;2.30;99.90;;;;;;4975341;28;20029;-82
2022/01/10 04:57:38;;;;;;;25.05;8.93;;;1.50;99.90;;;;;;4997534;28;20037;-82
2022/01/10 05:00:06;;;;;;;22.02;8.32;;;1.50;99.90;;;;;;5007054;28;20099;-81
2022/01/10 05:02:32;;;;;;;20.63;8.63;;;1.50;99.90;;;;;;5013426;28;20446;-82
2022/01/10 05:04:57;;;;;;;24.83;8.90;;;3.00;99.90;;;;;;5009946;28;20045;-81
2022/01/10 05:07:23;;;;;;;24.88;9.00;;;2.20;99.90;;;;;;5002031;28;20045;-81
2022/01/10 05:09:49;;;;;;;24.55;9.40;;;3.20;99.90;;;;;;4995215;28;20068;-81
2022/01/10 05:12:15;;;;;;;28.27;10.25;;;1.40;99.90;;;;;;4966922;28;20041;-81
2022/01/10 05:14:40;;;;;;;31.08;10.77;;;1.40;99.90;;;;;;4983020;28;20037;-81
2022/01/10 05:17:06;;;;;;;24.65;10.07;;;1.50;99.90;;;;;;4980194;28;20125;-81
2022/01/10 05:19:32;;;;;;;33.05;10.57;;;1.40;99.90;;;;;;4995494;28;20042;-81
2022/01/10 05:21:58;;;;;;;26.73;9.82;;;1.30;99.90;;;;;;5006008;28;20120;-82
2022/01/10 05:24:24;;;;;;;25.67;10.23;;;1.40;99.90;;;;;;4975498;28;20126;-82
2022/01/10 05:26:50;;;;;;;31.73;10.88;;;2.90;99.90;;;;;;5007619;28;20025;-81
2022/01/10 05:29:16;;;;;;;25.13;10.90;;;1.40;99.90;;;;;;5008949;28;20538;-82
2022/01/10 05:31:42;;;;;;;26.27;11.00;;;2.30;99.90;;;;;;5022783;28;20034;-82
2022/01/10 05:34:08;;;;;;;33.85;11.32;;;1.40;99.90;;;;;;5009442;28;20038;-81
2022/01/10 05:36:33;;;;;;;26.70;11.05;;;2.60;99.90;;;;;;5005895;28;20068;-82
2022/01/10 05:38:59;;;;;;;27.33;11.65;;;1.40;99.90;;;;;;5005118;28;20089;-81
2022/01/10 05:41:25;;;;;;;28.48;11.15;;;-1.50;99.90;;;;;;4992345;28;20038;-81
2022/01/10 05:43:55;;;;;;;27.20;11.13;;;1.40;99.90;;;;;;5007918;28;20403;-82
2022/01/10 05:46:22;;;;;;;23.77;11.15;;;1.40;99.90;;;;;;5008137;28;20041;-81
2022/01/10 05:48:51;;;;;;;30.92;12.27;;;1.40;99.90;;;;;;5009196;28;20030;-81
2022/01/10 05:51:19;;;;;;;29.95;11.57;;;1.40;99.90;;;;;;4973217;28;20030;-81
2022/01/10 05:53:46;;;;;;;27.58;11.40;;;1.40;99.90;;;;;;5008936;28;20127;-81
2022/01/10 05:56:12;;;;;;;28.38;11.63;;;1.40;99.90;;;;;;5004914;28;20038;-82
2022/01/10 05:58:40;;;;;;;31.90;12.38;;;1.30;99.90;;;;;;4992123;28;20030;-81
2022/01/10 06:01:06;;;;;;;28.02;12.32;;;1.40;99.90;;;;;;5000718;28;20046;-81
2022/01/10 06:03:31;;;;;;;27.58;11.25;;;2.40;99.90;;;;;;5009121;28;20034;-82
2022/01/10 06:05:57;;;;;;;27.85;12.68;;;1.40;99.90;;;;;;4996940;28;20049;-82
2022/01/10 06:08:23;;;;;;;35.65;13.15;;;1.30;99.90;;;;;;4986734;28;20529;-82
2022/01/10 06:10:49;;;;;;;26.70;12.48;;;1.30;99.90;;;;;;4993391;28;20054;-82
2022/01/10 06:13:14;;;;;;;29.30;12.55;;;1.30;99.90;;;;;;5008553;28;20053;-82
2022/01/10 06:15:41;;;;;;;33.75;12.98;;;3.10;99.90;;;;;;4956533;28;20506;-82
2022/01/10 06:18:07;;;;;;;27.15;12.15;;;1.80;99.90;;;;;;4992391;28;20058;-82
2022/01/10 06:20:33;;;;;;;29.15;12.38;;;3.10;99.90;;;;;;4959960;28;20455;-82
2022/01/10 06:22:59;;;;;;;29.02;13.18;;;2.70;99.90;;;;;;4991162;28;20080;-82
2022/01/10 06:25:26;;;;;;;28.48;13.77;;;1.20;99.90;;;;;;4968855;28;20081;-82
2022/01/10 06:27:52;;;;;;;27.55;13.35;;;1.50;99.90;;;;;;4974932;28;20042;-82
2022/01/10 06:30:18;;;;;;;35.30;13.80;;;1.30;99.90;;;;;;4990161;28;20030;-82
2022/01/10 06:32:44;;;;;;;30.85;13.70;;;1.30;99.90;;;;;;4986707;28;20073;-82
2022/01/10 06:35:10;;;;;;;28.83;13.93;;;2.80;99.90;;;;;;4973471;28;20123;-82
2022/01/10 06:37:36;;;;;;;34.70;15.15;;;1.30;99.90;;;;;;5004557;28;20046;-82
2022/01/10 06:40:05;;;;;;;30.02;13.85;;;1.20;99.90;;;;;;4992419;28;20038;-82
2022/01/10 06:42:31;;;;;;;30.70;13.63;;;1.20;99.90;;;;;;4975860;28;20041;-82
2022/01/10 06:44:56;;;;;;;32.88;13.73;;;1.20;99.90;;;;;;5001734;28;20041;-82
2022/01/10 06:47:22;;;;;;;37.08;14.55;;;1.20;99.90;;;;;;4975925;28;20498;-82
2022/01/10 06:49:48;;;;;;;36.13;14.25;;;1.20;99.90;;;;;;4975287;28;20044;-81
2022/01/10 06:52:13;;;;;;;37.92;15.77;;;1.20;99.90;;;;;;4986529;28;20038;-82
2022/01/10 06:54:39;;;;;;;33.45;14.82;;;2.70;99.90;;;;;;4959741;28;20038;-82
2022/01/10 06:57:05;;;;;;;30.73;14.75;;;1.10;99.90;;;;;;4992202;28;20092;-82
2022/01/10 06:59:31;;;;;;;34.75;14.55;;;1.20;99.90;;;;;;5006192;28;20046;-82
2022/01/10 07:01:58;;;;;;;33.50;15.10;;;1.10;99.90;;;;;;4989416;28;20049;-83
2022/01/10 07:04:25;;;;;;;35.88;16.55;;;1.10;99.90;;;;;;4987874;28;20041;-82
2022/01/10 07:06:51;;;;;;;39.15;15.70;;;1.10;99.90;;;;;;4989056;28;20116;-84
2022/01/10 07:09:16;;;;;;;32.50;14.98;;;1.50;99.90;;;;;;4967327;28;20124;-82
2022/01/10 07:11:42;;;;;;;34.38;14.95;;;1.10;99.90;;;;;;4991671;28;20447;-83
2022/01/10 07:14:08;;;;;;;43.38;17.15;;;1.10;99.90;;;;;;4973760;28;20100;-83
2022/01/10 07:16:34;;;;;;;38.15;16.17;;;1.10;99.90;;;;;;4998412;28;20121;-84
2022/01/10 07:19:01;;;;;;;38.70;17.20;;;1.10;99.90;;;;;;4954242;28;20042;-83
2022/01/10 07:21:27;;;;;;;37.90;15.52;;;1.10;99.90;;;;;;4951272;28;20477;-83
2022/01/10 07:23:53;;;;;;;34.17;16.02;;;2.00;99.90;;;;;;4972159;28;20049;-83
2022/01/10 07:26:19;;;;;;;31.20;14.77;;;1.10;99.90;;;;;;4961542;28;20046;-83
2022/01/10 07:28:44;;;;;;;35.88;15.98;;;1.10;99.90;;;;;;4959646;28;20049;-83
2022/01/10 07:31:10;;;;;;;34.78;15.52;;;2.10;99.90;;;;;;4945015;28;20152;-83
2022/01/10 07:33:37;;;;;;;36.83;15.57;;;1.10;99.90;;;;;;4984999;28;21444;-83
2022/01/10 07:36:04;;;;;;;38.97;15.90;;;1.10;99.90;;;;;;4958246;28;20042;-83
2022/01/10 07:38:35;;;;;;;37.25;15.23;;;1.10;99.90;;;;;;4960288;28;20113;-83
2022/01/10 07:41:02;;;;;;;30.52;14.45;;;1.10;99.90;;;;;;4954198;28;20044;-83
2022/01/10 07:43:28;;;;;;;32.03;14.88;;;1.10;99.90;;;;;;4970844;28;20038;-82
2022/01/10 07:45:54;;;;;;;33.33;16.00;;;1.00;99.90;;;;;;4991078;28;20034;-82
2022/01/10 07:48:20;;;;;;;32.15;16.05;;;1.10;99.90;;;;;;4961171;28;20475;-83
2022/01/10 07:50:45;;;;;;;34.22;15.40;;;1.10;99.90;;;;;;4948067;28;20038;-82
2022/01/10 07:53:11;;;;;;;34.78;14.82;;;1.60;99.90;;;;;;4946648;28;20217;-83
2022/01/10 07:55:37;;;;;;;33.92;15.40;;;1.10;99.90;;;;;;4977397;28;20091;-82
2022/01/10 07:58:03;;;;;;;33.67;15.82;;;1.00;99.90;;;;;;4988343;28;20045;-83
2022/01/10 08:00:29;;;;;;;32.38;14.73;;;1.00;99.90;;;;;;4956504;28;20410;-83
2022/01/10 08:02:54;;;;;;;34.78;15.13;;;1.10;99.90;;;;;;4942483;28;20129;-83
2022/01/10 08:05:20;;;;;;;38.15;16.90;;;2.30;99.90;;;;;;4960493;28;20055;-82
2022/01/10 08:07:46;;;;;;;33.10;15.57;;;2.30;99.90;;;;;;4946666;28;20042;-82
2022/01/10 08:10:12;;;;;;;34.83;16.20;;;1.10;99.90;;;;;;4962537;28;20073;-82
2022/01/10 08:12:37;;;;;;;36.95;16.02;;;1.00;99.90;;;;;;4959707;28;20542;-83
2022/01/10 08:15:07;;;;;;;37.92;15.85;;;1.00;99.90;;;;;;4957713;28;20034;-83
2022/01/10 08:17:33;;;;;;;35.22;16.23;;;1.10;99.90;;;;;;4982430;28;20046;-83
2022/01/10 08:19:58;;;;;;;39.78;17.15;;;1.00;99.90;;;;;;4990297;28;20161;-83
2022/01/10 08:22:24;;;;;;;33.92;15.52;;;1.10;99.90;;;;;;4974338;28;20050;-83
2022/01/10 08:24:52;;;;;;;40.97;17.15;;;0.90;99.90;;;;;;4973544;28;20045;-82
2022/01/10 08:27:17;;;;;;;34.10;15.50;;;2.20;99.90;;;;;;4985398;28;20076;-82
2022/01/10 08:29:43;;;;;;;31.67;16.63;;;1.20;99.90;;;;;;4972877;28;20081;-82
2022/01/10 08:32:09;;;;;;;37.95;17.02;;;1.60;99.90;;;;;;4971928;28;20027;-82
2022/01/10 08:34:35;;;;;;;35.70;16.65;;;0.30;99.90;;;;;;4999695;28;20503;-83
2022/01/10 08:37:01;;;;;;;35.65;16.55;;;1.20;99.90;;;;;;4989885;28;20042;-82
2022/01/10 08:39:27;;;;;;;34.13;17.38;;;;;;;;;;4975344;28;20632;-83
2022/01/10 08:41:53;;;;;;;33.90;16.73;;;1.30;99.90;;;;;;4992388;28;20130;-83
2022/01/10 08:44:19;;;;;;;35.15;17.65;;;1.30;99.90;;;;;;4960734;28;20137;-83
2022/01/10 08:46:46;;;;;;;31.30;16.38;;;1.40;99.90;;;;;;4974609;28;20161;-83
2022/01/10 08:49:13;;;;;;;32.95;15.90;;;1.40;99.90;;;;;;4992379;28;20069;-83
2022/01/10 08:51:40;;;;;;;35.35;17.65;;;1.50;99.90;;;;;;4992755;28;20034;-83
2022/01/10 08:54:07;;;;;;;35.67;17.88;;;1.50;99.90;;;;;;5004236;28;20068;-83
2022/01/10 08:56:32;;;;;;;32.83;16.35;;;1.50;99.90;;;;;;5001031;28;20073;-85
2022/01/10 08:58:59;;;;;;;32.22;16.17;;;1.60;99.90;;;;;;4973565;28;20116;-83
2022/01/10 09:01:26;;;;;;;31.48;16.60;;;2.90;99.90;;;;;;5004585;28;20046;-83
2022/01/10 09:03:52;;;;;;;36.17;16.42;;;1.70;99.90;;;;;;4974213;28;20034;-83
2022/01/10 09:06:18;;;;;;;35.28;17.60;;;2.20;99.90;;;;;;5003334;28;20053;-84
2022/01/10 09:08:46;;;;;;;39.38;17.58;;;1.80;99.90;;;;;;4954096;28;20038;-84
2022/01/10 09:11:12;;;;;;;41.90;18.30;;;1.80;99.90;;;;;;5001734;28;20041;-85
2022/01/10 09:13:38;;;;;;;34.13;17.73;;;1.90;99.90;;;;;;4987068;28;20041;-83
2022/01/10 09:16:06;;;;;;;37.00;17.45;;;1.90;99.90;;;;;;4975403;28;20057;-85
2022/01/10 09:18:32;;;;;;;33.00;17.48;;;1.90;99.90;;;;;;4974500;28;20050;-83
2022/01/10 09:20:58;;;;;;;34.17;17.60;;;2.00;99.90;;;;;;4991525;28;20471;-86
2022/01/10 09:23:24;;;;;;;35.28;17.45;;;2.90;99.90;;;;;;4973693;28;20048;-83
2022/01/10 09:25:50;;;;;;;36.85;17.55;;;2.10;99.90;;;;;;4991975;28;20089;-81
2022/01/10 09:28:17;;;;;;;37.33;18.48;;;2.90;99.90;;;;;;4971289;28;20541;-84
2022/01/10 09:30:43;;;;;;;29.77;16.35;;;;;;;;;;4989229;28;20442;-83
2022/01/10 09:33:09;;;;;;;33.05;17.27;;;2.20;99.90;;;;;;4971841;28;20088;-83
2022/01/10 09:35:34;;;;;;;32.13;16.90;;;3.60;99.90;;;;;;4971944;28;20065;-82
2022/01/10 09:38:00;;;;;;;34.17;17.00;;;2.30;99.90;;;;;;4991146;28;20113;-82
2022/01/10 09:40:26;;;;;;;28.92;17.23;;;2.30;99.90;;;;;;4970182;28;20046;-83
2022/01/10 09:42:52;;;;;;;31.95;17.35;;;2.40;99.90;;;;;;4990261;28;20070;-82
2022/01/10 09:45:18;;;;;;;32.03;16.75;;;2.50;99.90;;;;;;4972476;28;20072;-82
2022/01/10 09:47:44;;;;;;;29.17;16.38;;;2.40;99.90;;;;;;4989317;28;20092;-83
2022/01/10 09:50:15;;;;;;;33.20;17.77;;;4.00;99.90;;;;;;4969846;28;20042;-83
2022/01/10 09:52:45;;;;;;;32.47;16.63;;;3.20;99.90;;;;;;5002641;28;20042;-84
2022/01/10 09:55:11;;;;;;;33.13;17.15;;;2.50;99.90;;;;;;4986961;28;20045;-84
2022/01/10 09:57:37;;;;;;;32.13;17.50;;;2.50;99.90;;;;;;4986606;28;20030;-84
2022/01/10 10:00:05;;;;;;;31.52;17.98;;;2.60;99.90;;;;;;4974756;28;20092;-83
2022/01/10 10:02:32;;;;;;;32.33;16.60;;;2.60;99.90;;;;;;5001762;28;20140;-84
2022/01/10 10:04:59;;;;;;;30.95;17.17;;;4.10;99.90;;;;;;4982153;28;20045;-83
2022/01/10 10:07:25;;;;;;;35.00;17.45;;;2.70;99.90;;;;;;4989863;28;20048;-83
2022/01/10 10:09:51;;;;;;;31.23;17.00;;;3.90;99.90;;;;;;5005238;28;20042;-84
2022/01/10 10:12:17;;;;;;;34.15;17.65;;;2.80;99.90;;;;;;4989640;28;20085;-83
2022/01/10 10:14:45;;;;;;;33.30;17.45;;;3.50;99.90;;;;;;4987290;28;20084;-84
2022/01/10 10:17:17;;;;;;;32.40;17.23;;;4.10;99.90;;;;;;5004135;28;20046;-83
2022/01/10 10:19:44;;;;;;;30.03;16.90;;;;;;;;;;4985615;28;20067;-83
2022/01/10 10:22:15;;;;;;;33.17;18.00;;;3.00;99.90;;;;;;4991217;28;20285;-83
2022/01/10 10:24:41;;;;;;;38.22;18.70;;;4.00;99.90;;;;;;4978498;28;20046;-84
2022/01/10 10:27:08;;;;;;;29.80;17.38;;;3.10;99.90;;;;;;4974190;28;20033;-84
2022/01/10 10:29:37;;;;;;;35.67;19.55;;;3.20;99.90;;;;;;4990627;28;20069;-83
2022/01/10 10:32:04;;;;;;;33.88;16.98;;;3.20;99.90;;;;;;4991149;28;20042;-85
2022/01/10 10:34:32;;;;;;;33.22;17.80;;;3.30;99.90;;;;;;5007448;28;20038;-84
2022/01/10 10:37:11;;;;;;;33.10;18.05;;;4.70;99.90;;;;;;4989383;28;20441;-84
2022/01/10 10:39:40;;;;;;;29.88;17.45;;;3.40;99.90;;;;;;4987837;28;20069;-84
2022/01/10 10:42:09;;;;;;;31.33;16.90;;;3.50;99.90;;;;;;4989502;28;20042;-84
2022/01/10 10:44:35;;;;;;;31.88;17.73;;;5.00;99.90;;;;;;4989169;28;20046;-84
2022/01/10 10:47:03;;;;;;;33.13;16.48;;;3.50;99.90;;;;;;4989483;28;20037;-83
2022/01/10 10:49:34;;;;;;;30.48;18.08;;;3.60;99.90;;;;;;4964285;28;20073;-83
2022/01/10 10:52:03;;;;;;;29.67;17.15;;;3.30;99.90;;;;;;4988002;28;20044;-83
2022/01/10 10:54:33;;;;;;;31.92;17.02;;;3.60;99.90;;;;;;4990458;28;20478;-83
2022/01/10 10:57:01;;;;;;;30.23;18.13;;;3.70;99.90;;;;;;5002899;28;20045;-83
2022/01/10 10:59:34;;;;;;;32.53;18.15;;;4.80;99.90;;;;;;5003675;28;20112;-83
2022/01/10 11:02:02;;;;;;;33.10;17.98;;;3.80;99.90;;;;;;4975493;28;20034;-84
2022/01/10 11:04:29;;;;;;;31.95;17.52;;;4.40;99.90;;;;;;4989304;28;20056;-83
2022/01/10 11:06:56;;;;;;;28.40;17.00;;;3.90;99.90;;;;;;4973836;28;20067;-83
2022/01/10 11:09:22;;;;;;;26.50;16.73;;;4.70;99.90;;;;;;4986608;28;20111;-83
2022/01/10 11:11:48;;;;;;;33.72;18.67;;;5.20;99.90;;;;;;4983982;28;20033;-84
2022/01/10 11:14:17;;;;;;;30.15;18.00;;;4.00;99.90;;;;;;4985495;28;20033;-83
2022/01/10 11:16:45;;;;;;;29.70;17.83;;;4.80;99.90;;;;;;4989305;28;20092;-83
2022/01/10 11:19:28;;;;;;;30.20;17.73;;;6.00;99.90;;;;;;4990069;28;20404;-83
2022/01/10 11:22:01;;;;;;;32.40;18.52;;;4.20;99.90;;;;;;4990535;28;20038;-83
2022/01/10 11:24:50;;;;;;;35.28;18.75;;;4.20;99.90;;;;;;4989993;28;20240;-83
2022/01/10 11:27:27;;;;;;;30.35;18.42;;;4.30;99.90;;;;;;4988862;28;20041;-83
2022/01/10 11:29:55;;;;;;;30.60;17.25;;;4.60;99.90;;;;;;4986885;28;20088;-84
2022/01/10 11:32:21;;;;;;;32.50;17.40;;;5.50;99.90;;;;;;5004880;28;20527;-83
2022/01/10 11:34:48;;;;;;;31.88;16.80;;;6.40;99.90;;;;;;4989893;28;20049;-83
2022/01/10 11:37:15;;;;;;;26.40;16.38;;;4.40;99.90;;;;;;5006123;28;20041;-83
2022/01/10 11:39:42;;;;;;;26.90;15.75;;;4.50;99.90;;;;;;4995692;28;20045;-84
2022/01/10 11:42:42;;;;;;;27.65;15.93;;;6.00;99.90;;;;;;4978188;28;20104;-83
2022/01/10 11:45:09;;;;;;;27.77;16.00;;;5.90;99.90;;;;;;5005014;28;20495;-83
2022/01/10 11:48:01;;;;;;;29.15;16.35;;;6.20;99.90;;;;;;4994166;28;20034;-83
2022/01/10 11:50:29;;;;;;;26.33;15.32;;;5.70;99.90;;;;;;4993172;28;20065;-83
2022/01/10 11:52:56;;;;;;;29.90;16.17;;;4.70;99.90;;;;;;4998516;28;20335;-83
2022/01/10 11:55:42;;;;;;;30.67;16.58;;;4.80;99.90;;;;;;4996888;28;20038;-84
2022/01/10 11:58:25;;;;;;;32.47;16.08;;;4.90;99.90;;;;;;5011120;28;20033;-83
2022/01/10 12:01:04;;;;;;;28.10;16.10;;;4.90;99.90;;;;;;4994339;28;20040;-84
2022/01/10 12:03:31;;;;;;;30.73;15.98;;;6.40;99.90;;;;;;4995502;28;20165;-84
2022/01/10 12:05:57;;;;;;;27.40;15.93;;;5.00;99.90;;;;;;4995126;28;20533;-84
2022/01/10 12:08:23;;;;;;;31.33;15.90;;;6.70;99.90;;;;;;4996516;28;20116;-84
2022/01/10 12:10:49;;;;;;;30.40;15.63;;;6.10;99.90;;;;;;4960788;28;20379;-84
2022/01/10 12:13:16;;;;;;;26.50;14.55;;;5.20;99.90;;;;;;4994964;28;20053;-85
2022/01/10 12:15:41;;;;;;;24.40;14.43;;;6.80;99.90;;;;;;5011331;28;20042;-84
2022/01/10 12:18:08;;;;;;;24.92;13.77;;;5.30;99.90;;;;;;4980164;28;20053;-83
2022/01/10 12:20:35;;;;;;;24.05;13.43;;;5.30;99.90;;;;;;4984553;28;20123;-84
2022/01/10 12:23:01;;;;;;;30.20;14.57;;;5.40;99.90;;;;;;5013103;28;20398;-83
2022/01/10 12:25:27;;;;;;;29.25;13.20;;;6.70;99.90;;;;;;4996707;28;20096;-84
2022/01/10 12:27:54;;;;;;;25.00;12.45;;;5.40;99.90;;;;;;4983608;28;20037;-84
2022/01/10 12:30:25;;;;;;;26.35;12.90;;;6.00;99.90;;;;;;4993004;28;20128;-83
2022/01/10 12:32:52;;;;;;;26.58;13.38;;;5.50;99.90;;;;;;5000541;28;20033;-84
2022/01/10 12:35:18;;;;;;;28.00;13.90;;;6.80;99.90;;;;;;5009337;28;20073;-84
2022/01/10 12:37:44;;;;;;;25.90;13.30;;;5.90;99.90;;;;;;4981139;28;20521;-84
2022/01/10 12:40:10;;;;;;;29.10;13.52;;;6.40;99.90;;;;;;4997883;28;20092;-83
2022/01/10 12:42:36;;;;;;;24.90;13.35;;;5.60;99.90;;;;;;4980114;28;20065;-83
2022/01/10 12:45:04;;;;;;;27.20;13.23;;;6.80;99.90;;;;;;4978561;28;20135;-84
2022/01/10 12:47:29;;;;;;;28.75;13.82;;;4.20;99.90;;;;;;4999330;28;20509;-83